sensor_id;sensor_type;location;lat;lon;timestamp;P1;durP1;ratioP1;P2;durP2;ratioP2
8887;SDS011;4480;52.370;9.748;2023-04-24T00:00:53;1.80;;;1.20;;
8887;SDS011;4480;52.370;9.748;2023-04-24T00:03:22;2.13;;;1.20;;
8887;SDS011;4480;52.370;9.748;2023-04-24T00:05:49;1.13;;;1.03;;
8887;SDS011;4480;52.370;9.748;2023-04-24T00:08:17;1.73;;;1.20;;
8887;SDS011;4480;52.370;9.748;2023-04-24T00:10:44;5.93;;;1.63;;
8887;SDS011;4480;52.370;9.748;2023-04-24T00:13:11;0.90;;;0.80;;
8887;SDS011;4480;52.370;9.748;2023-04-24T00:15:38;1.30;;;1.20;;
8887;SDS011;4480;52.370;9.748;2023-04-24T00:18:04;1.50;;;1.40;;
8887;SDS011;4480;52.370;9.748;2023-04-24T00:20:32;2.03;;;1.50;;
8887;SDS011;4480;52.370;9.748;2023-04-24T00:23:00;1.30;;;1.17;;
8887;SDS011;4480;52.370;9.748;2023-04-24T00:25:27;1.40;;;1.10;;
8887;SDS011;4480;52.370;9.748;2023-04-24T00:27:54;1.27;;;1.07;;
8887;SDS011;4480;52.370;9.748;2023-04-24T00:30:21;1.33;;;1.23;;
8887;SDS011;4480;52.370;9.748;2023-04-24T00:32:47;3.67;;;1.23;;
8887;SDS011;4480;52.370;9.748;2023-04-24T00:35:14;1.50;;;0.97;;
8887;SDS011;4480;52.370;9.748;2023-04-24T00:37:42;2.00;;;1.30;;
8887;SDS011;4480;52.370;9.748;2023-04-24T00:40:09;2.27;;;1.20;;
8887;SDS011;4480;52.370;9.748;2023-04-24T00:42:36;1.27;;;1.17;;
8887;SDS011;4480;52.370;9.748;2023-04-24T00:45:04;1.70;;;1.33;;
8887;SDS011;4480;52.370;9.748;2023-04-24T00:47:31;1.13;;;1.00;;
8887;SDS011;4480;52.370;9.748;2023-04-24T00:50:00;1.33;;;1.23;;
8887;SDS011;4480;52.370;9.748;2023-04-24T00:52:28;1.57;;;1.20;;
8887;SDS011;4480;52.370;9.748;2023-04-24T00:54:57;1.20;;;1.10;;
8887;SDS011;4480;52.370;9.748;2023-04-24T00:57:24;2.13;;;1.40;;
8887;SDS011;4480;52.370;9.748;2023-04-24T00:59:52;1.50;;;1.40;;
8887;SDS011;4480;52.370;9.748;2023-04-24T01:02:19;1.70;;;1.37;;
8887;SDS011;4480;52.370;9.748;2023-04-24T01:04:47;1.20;;;1.10;;
8887;SDS011;4480;52.370;9.748;2023-04-24T01:07:16;1.50;;;1.30;;
8887;SDS011;4480;52.370;9.748;2023-04-24T01:09:45;1.83;;;1.20;;
8887;SDS011;4480;52.370;9.748;2023-04-24T01:12:17;1.30;;;1.00;;
8887;SDS011;4480;52.370;9.748;2023-04-24T01:14:44;1.20;;;1.03;;
8887;SDS011;4480;52.370;9.748;2023-04-24T01:17:11;1.60;;;1.40;;
8887;SDS011;4480;52.370;9.748;2023-04-24T01:19:37;1.03;;;0.93;;
8887;SDS011;4480;52.370;9.748;2023-04-24T01:22:08;1.47;;;1.10;;
8887;SDS011;4480;52.370;9.748;2023-04-24T01:24:36;1.67;;;1.10;;
8887;SDS011;4480;52.370;9.748;2023-04-24T01:27:03;1.30;;;1.20;;
8887;SDS011;4480;52.370;9.748;2023-04-24T01:29:30;1.63;;;1.40;;
8887;SDS011;4480;52.370;9.748;2023-04-24T01:31:57;1.30;;;1.20;;
8887;SDS011;4480;52.370;9.748;2023-04-24T01:34:24;2.50;;;1.40;;
8887;SDS011;4480;52.370;9.748;2023-04-24T01:36:51;2.53;;;1.47;;
8887;SDS011;4480;52.370;9.748;2023-04-24T01:39:20;1.30;;;1.20;;
8887;SDS011;4480;52.370;9.748;2023-04-24T01:41:48;1.90;;;1.20;;
8887;SDS011;4480;52.370;9.748;2023-04-24T01:44:15;1.27;;;1.17;;
8887;SDS011;4480;52.370;9.748;2023-04-24T01:46:42;6.93;;;1.20;;
8887;SDS011;4480;52.370;9.748;2023-04-24T01:49:09;1.20;;;1.10;;
8887;SDS011;4480;52.370;9.748;2023-04-24T01:51:36;1.60;;;1.20;;
8887;SDS011;4480;52.370;9.748;2023-04-24T01:54:03;1.20;;;1.10;;
8887;SDS011;4480;52.370;9.748;2023-04-24T01:56:31;1.27;;;1.17;;
8887;SDS011;4480;52.370;9.748;2023-04-24T01:59:00;1.00;;;0.83;;
8887;SDS011;4480;52.370;9.748;2023-04-24T02:01:31;1.50;;;1.33;;
8887;SDS011;4480;52.370;9.748;2023-04-24T02:04:00;1.20;;;1.10;;
8887;SDS011;4480;52.370;9.748;2023-04-24T02:06:27;2.30;;;1.13;;
8887;SDS011;4480;52.370;9.748;2023-04-24T02:08:54;1.70;;;1.50;;
8887;SDS011;4480;52.370;9.748;2023-04-24T02:11:21;1.63;;;1.00;;
8887;SDS011;4480;52.370;9.748;2023-04-24T02:13:49;1.40;;;1.10;;
8887;SDS011;4480;52.370;9.748;2023-04-24T02:16:16;1.53;;;1.30;;
8887;SDS011;4480;52.370;9.748;2023-04-24T02:18:43;1.43;;;1.33;;
8887;SDS011;4480;52.370;9.748;2023-04-24T02:21:10;1.53;;;1.40;;
8887;SDS011;4480;52.370;9.748;2023-04-24T02:23:37;1.10;;;1.00;;
8887;SDS011;4480;52.370;9.748;2023-04-24T02:26:04;1.30;;;1.20;;
8887;SDS011;4480;52.370;9.748;2023-04-24T02:28:31;1.37;;;1.27;;
8887;SDS011;4480;52.370;9.748;2023-04-24T02:30:59;1.60;;;1.50;;
8887;SDS011;4480;52.370;9.748;2023-04-24T02:33:26;2.20;;;1.40;;
8887;SDS011;4480;52.370;9.748;2023-04-24T02:35:52;2.13;;;1.80;;
8887;SDS011;4480;52.370;9.748;2023-04-24T02:38:19;1.15;;;1.05;;
8887;SDS011;4480;52.370;9.748;2023-04-24T02:40:46;2.50;;;1.37;;
8887;SDS011;4480;52.370;9.748;2023-04-24T02:43:12;1.87;;;1.57;;
8887;SDS011;4480;52.370;9.748;2023-04-24T02:45:39;2.40;;;1.10;;
8887;SDS011;4480;52.370;9.748;2023-04-24T02:48:07;1.60;;;1.50;;
8887;SDS011;4480;52.370;9.748;2023-04-24T02:50:34;1.20;;;1.10;;
8887;SDS011;4480;52.370;9.748;2023-04-24T02:53:01;1.20;;;1.10;;
8887;SDS011;4480;52.370;9.748;2023-04-24T02:55:28;1.30;;;1.20;;
8887;SDS011;4480;52.370;9.748;2023-04-24T02:57:55;1.53;;;1.10;;
8887;SDS011;4480;52.370;9.748;2023-04-24T03:00:22;2.30;;;1.33;;
8887;SDS011;4480;52.370;9.748;2023-04-24T03:02:48;2.75;;;1.40;;
8887;SDS011;4480;52.370;9.748;2023-04-24T03:05:17;1.53;;;1.40;;
8887;SDS011;4480;52.370;9.748;2023-04-24T03:07:43;1.77;;;1.23;;
8887;SDS011;4480;52.370;9.748;2023-04-24T03:10:11;1.17;;;1.07;;
8887;SDS011;4480;52.370;9.748;2023-04-24T03:12:38;1.37;;;1.27;;
8887;SDS011;4480;52.370;9.748;2023-04-24T03:15:05;1.48;;;0.98;;
8887;SDS011;4480;52.370;9.748;2023-04-24T03:17:32;3.08;;;1.27;;
8887;SDS011;4480;52.370;9.748;2023-04-24T03:20:00;1.30;;;1.00;;
8887;SDS011;4480;52.370;9.748;2023-04-24T03:22:28;1.00;;;0.90;;
8887;SDS011;4480;52.370;9.748;2023-04-24T03:24:57;1.13;;;1.03;;
8887;SDS011;4480;52.370;9.748;2023-04-24T03:27:24;1.80;;;1.10;;
8887;SDS011;4480;52.370;9.748;2023-04-24T03:29:51;1.20;;;1.10;;
8887;SDS011;4480;52.370;9.748;2023-04-24T03:32:20;1.20;;;1.00;;
8887;SDS011;4480;52.370;9.748;2023-04-24T03:34:47;1.05;;;0.95;;
8887;SDS011;4480;52.370;9.748;2023-04-24T03:37:14;1.30;;;1.20;;
8887;SDS011;4480;52.370;9.748;2023-04-24T03:39:42;1.45;;;1.02;;
8887;SDS011;4480;52.370;9.748;2023-04-24T03:42:09;1.40;;;1.02;;
8887;SDS011;4480;52.370;9.748;2023-04-24T03:44:35;2.77;;;1.07;;
8887;SDS011;4480;52.370;9.748;2023-04-24T03:47:02;1.20;;;1.08;;
8887;SDS011;4480;52.370;9.748;2023-04-24T03:49:29;1.27;;;1.08;;
8887;SDS011;4480;52.370;9.748;2023-04-24T03:51:56;2.97;;;1.27;;
8887;SDS011;4480;52.370;9.748;2023-04-24T03:54:23;1.08;;;0.80;;
8887;SDS011;4480;52.370;9.748;2023-04-24T03:56:51;1.20;;;1.10;;
8887;SDS011;4480;52.370;9.748;2023-04-24T03:59:18;1.52;;;1.35;;
8887;SDS011;4480;52.370;9.748;2023-04-24T04:01:44;1.30;;;1.20;;
8887;SDS011;4480;52.370;9.748;2023-04-24T04:04:11;1.40;;;1.17;;
8887;SDS011;4480;52.370;9.748;2023-04-24T04:06:38;1.90;;;1.10;;
8887;SDS011;4480;52.370;9.748;2023-04-24T04:11:34;1.40;;;1.30;;
8887;SDS011;4480;52.370;9.748;2023-04-24T04:14:01;1.70;;;1.02;;
8887;SDS011;4480;52.370;9.748;2023-04-24T04:16:28;2.55;;;1.50;;
8887;SDS011;4480;52.370;9.748;2023-04-24T04:18:55;1.10;;;1.00;;
8887;SDS011;4480;52.370;9.748;2023-04-24T04:21:22;1.60;;;1.13;;
8887;SDS011;4480;52.370;9.748;2023-04-24T04:23:49;1.10;;;1.00;;
8887;SDS011;4480;52.370;9.748;2023-04-24T04:26:15;1.10;;;0.90;;
8887;SDS011;4480;52.370;9.748;2023-04-24T04:28:45;2.93;;;1.07;;
8887;SDS011;4480;52.370;9.748;2023-04-24T04:31:12;1.20;;;1.10;;
8887;SDS011;4480;52.370;9.748;2023-04-24T04:33:39;1.50;;;1.30;;
8887;SDS011;4480;52.370;9.748;2023-04-24T04:36:06;1.80;;;1.30;;
8887;SDS011;4480;52.370;9.748;2023-04-24T04:38:33;1.30;;;1.20;;
8887;SDS011;4480;52.370;9.748;2023-04-24T04:41:00;1.33;;;1.20;;
8887;SDS011;4480;52.370;9.748;2023-04-24T04:43:27;2.10;;;1.30;;
8887;SDS011;4480;52.370;9.748;2023-04-24T04:45:59;1.97;;;1.50;;
8887;SDS011;4480;52.370;9.748;2023-04-24T04:48:25;2.33;;;1.43;;
8887;SDS011;4480;52.370;9.748;2023-04-24T04:50:52;1.20;;;1.10;;
8887;SDS011;4480;52.370;9.748;2023-04-24T04:53:19;2.20;;;1.60;;
8887;SDS011;4480;52.370;9.748;2023-04-24T04:55:46;3.10;;;1.20;;
8887;SDS011;4480;52.370;9.748;2023-04-24T04:58:13;1.40;;;1.20;;
8887;SDS011;4480;52.370;9.748;2023-04-24T05:00:40;1.60;;;1.20;;
8887;SDS011;4480;52.370;9.748;2023-04-24T05:03:08;1.17;;;1.07;;
8887;SDS011;4480;52.370;9.748;2023-04-24T05:05:35;3.63;;;1.40;;
8887;SDS011;4480;52.370;9.748;2023-04-24T05:08:05;1.30;;;1.20;;
8887;SDS011;4480;52.370;9.748;2023-04-24T05:10:32;2.63;;;1.40;;
8887;SDS011;4480;52.370;9.748;2023-04-24T05:13:01;1.63;;;1.27;;
8887;SDS011;4480;52.370;9.748;2023-04-24T05:15:28;1.23;;;1.13;;
8887;SDS011;4480;52.370;9.748;2023-04-24T05:17:55;1.60;;;1.20;;
8887;SDS011;4480;52.370;9.748;2023-04-24T05:20:23;1.40;;;1.30;;
8887;SDS011;4480;52.370;9.748;2023-04-24T05:22:50;1.20;;;1.07;;
8887;SDS011;4480;52.370;9.748;2023-04-24T05:25:17;2.53;;;1.40;;
8887;SDS011;4480;52.370;9.748;2023-04-24T05:27:44;1.60;;;1.03;;
8887;SDS011;4480;52.370;9.748;2023-04-24T05:30:12;2.03;;;1.20;;
8887;SDS011;4480;52.370;9.748;2023-04-24T05:32:39;1.40;;;1.10;;
8887;SDS011;4480;52.370;9.748;2023-04-24T05:35:06;1.17;;;1.07;;
8887;SDS011;4480;52.370;9.748;2023-04-24T05:37:34;1.27;;;1.17;;
8887;SDS011;4480;52.370;9.748;2023-04-24T05:40:01;10.00;;;1.50;;
8887;SDS011;4480;52.370;9.748;2023-04-24T05:42:30;1.27;;;1.17;;
8887;SDS011;4480;52.370;9.748;2023-04-24T05:44:57;2.57;;;1.33;;
8887;SDS011;4480;52.370;9.748;2023-04-24T05:47:23;1.60;;;1.30;;
8887;SDS011;4480;52.370;9.748;2023-04-24T05:49:51;1.97;;;1.40;;
8887;SDS011;4480;52.370;9.748;2023-04-24T05:52:18;1.80;;;1.70;;
8887;SDS011;4480;52.370;9.748;2023-04-24T05:54:48;1.70;;;1.60;;
8887;SDS011;4480;52.370;9.748;2023-04-24T05:57:18;2.00;;;1.30;;
8887;SDS011;4480;52.370;9.748;2023-04-24T05:59:45;1.70;;;1.60;;
8887;SDS011;4480;52.370;9.748;2023-04-24T06:02:12;1.93;;;1.33;;
8887;SDS011;4480;52.370;9.748;2023-04-24T06:04:38;1.40;;;1.30;;
8887;SDS011;4480;52.370;9.748;2023-04-24T06:07:05;1.60;;;1.50;;
8887;SDS011;4480;52.370;9.748;2023-04-24T06:09:32;1.53;;;1.40;;
8887;SDS011;4480;52.370;9.748;2023-04-24T06:12:00;1.53;;;1.30;;
8887;SDS011;4480;52.370;9.748;2023-04-24T06:14:27;1.57;;;1.47;;
8887;SDS011;4480;52.370;9.748;2023-04-24T06:16:54;2.57;;;1.60;;
8887;SDS011;4480;52.370;9.748;2023-04-24T06:19:21;2.60;;;2.00;;
8887;SDS011;4480;52.370;9.748;2023-04-24T06:21:48;1.60;;;1.37;;
8887;SDS011;4480;52.370;9.748;2023-04-24T06:24:14;12.63;;;1.50;;
8887;SDS011;4480;52.370;9.748;2023-04-24T06:26:41;1.60;;;1.50;;
8887;SDS011;4480;52.370;9.748;2023-04-24T06:29:10;3.63;;;2.20;;
8887;SDS011;4480;52.370;9.748;2023-04-24T06:31:36;2.23;;;1.50;;
8887;SDS011;4480;52.370;9.748;2023-04-24T06:34:03;2.13;;;1.90;;
8887;SDS011;4480;52.370;9.748;2023-04-24T06:36:30;1.93;;;1.70;;
8887;SDS011;4480;52.370;9.748;2023-04-24T06:38:59;2.60;;;2.17;;
8887;SDS011;4480;52.370;9.748;2023-04-24T06:41:26;2.00;;;1.70;;
8887;SDS011;4480;52.370;9.748;2023-04-24T06:43:53;2.23;;;2.00;;
8887;SDS011;4480;52.370;9.748;2023-04-24T06:46:21;2.17;;;1.97;;
8887;SDS011;4480;52.370;9.748;2023-04-24T06:48:49;2.60;;;2.40;;
8887;SDS011;4480;52.370;9.748;2023-04-24T06:51:15;3.17;;;2.87;;
8887;SDS011;4480;52.370;9.748;2023-04-24T06:53:43;3.60;;;2.70;;
8887;SDS011;4480;52.370;9.748;2023-04-24T06:56:10;3.80;;;3.20;;
8887;SDS011;4480;52.370;9.748;2023-04-24T06:58:37;3.53;;;3.33;;
8887;SDS011;4480;52.370;9.748;2023-04-24T07:01:04;3.97;;;3.67;;
8887;SDS011;4480;52.370;9.748;2023-04-24T07:03:32;3.60;;;3.30;;
8887;SDS011;4480;52.370;9.748;2023-04-24T07:05:59;3.43;;;3.10;;
8887;SDS011;4480;52.370;9.748;2023-04-24T07:08:26;3.73;;;3.43;;
8887;SDS011;4480;52.370;9.748;2023-04-24T07:10:53;4.57;;;3.50;;
8887;SDS011;4480;52.370;9.748;2023-04-24T07:13:21;5.00;;;3.80;;
8887;SDS011;4480;52.370;9.748;2023-04-24T07:15:47;7.37;;;3.53;;
8887;SDS011;4480;52.370;9.748;2023-04-24T07:18:15;5.00;;;4.13;;
8887;SDS011;4480;52.370;9.748;2023-04-24T07:20:44;4.80;;;4.30;;
8887;SDS011;4480;52.370;9.748;2023-04-24T07:23:11;4.47;;;3.67;;
8887;SDS011;4480;52.370;9.748;2023-04-24T07:25:37;5.00;;;4.50;;
8887;SDS011;4480;52.370;9.748;2023-04-24T07:28:05;3.73;;;3.43;;
8887;SDS011;4480;52.370;9.748;2023-04-24T07:30:31;4.37;;;3.87;;
8887;SDS011;4480;52.370;9.748;2023-04-24T07:32:58;5.17;;;4.60;;
8887;SDS011;4480;52.370;9.748;2023-04-24T07:35:25;6.27;;;3.87;;
8887;SDS011;4480;52.370;9.748;2023-04-24T07:37:54;5.57;;;4.30;;
8887;SDS011;4480;52.370;9.748;2023-04-24T07:40:20;8.63;;;4.97;;
8887;SDS011;4480;52.370;9.748;2023-04-24T07:42:48;5.70;;;4.37;;
8887;SDS011;4480;52.370;9.748;2023-04-24T07:45:14;4.60;;;4.00;;
8887;SDS011;4480;52.370;9.748;2023-04-24T07:47:42;4.40;;;3.50;;
8887;SDS011;4480;52.370;9.748;2023-04-24T07:50:10;5.90;;;4.37;;
8887;SDS011;4480;52.370;9.748;2023-04-24T07:52:37;4.67;;;3.80;;
8887;SDS011;4480;52.370;9.748;2023-04-24T07:55:06;5.80;;;4.20;;
8887;SDS011;4480;52.370;9.748;2023-04-24T07:57:33;5.37;;;4.87;;
8887;SDS011;4480;52.370;9.748;2023-04-24T08:00:00;5.47;;;4.97;;
8887;SDS011;4480;52.370;9.748;2023-04-24T08:02:27;5.97;;;5.37;;
8887;SDS011;4480;52.370;9.748;2023-04-24T08:04:54;7.50;;;5.23;;
8887;SDS011;4480;52.370;9.748;2023-04-24T08:07:21;6.13;;;5.53;;
8887;SDS011;4480;52.370;9.748;2023-04-24T08:09:49;6.03;;;5.53;;
8887;SDS011;4480;52.370;9.748;2023-04-24T08:12:17;6.37;;;5.77;;
8887;SDS011;4480;52.370;9.748;2023-04-24T08:14:44;5.77;;;5.17;;
8887;SDS011;4480;52.370;9.748;2023-04-24T08:17:10;5.90;;;5.10;;
8887;SDS011;4480;52.370;9.748;2023-04-24T08:19:39;6.47;;;5.80;;
8887;SDS011;4480;52.370;9.748;2023-04-24T08:22:08;6.60;;;5.83;;
8887;SDS011;4480;52.370;9.748;2023-04-24T08:24:34;6.40;;;5.77;;
8887;SDS011;4480;52.370;9.748;2023-04-24T08:27:01;9.17;;;5.43;;
8887;SDS011;4480;52.370;9.748;2023-04-24T08:29:29;5.40;;;4.90;;
8887;SDS011;4480;52.370;9.748;2023-04-24T08:31:56;7.37;;;5.57;;
8887;SDS011;4480;52.370;9.748;2023-04-24T08:34:23;5.53;;;5.03;;
8887;SDS011;4480;52.370;9.748;2023-04-24T08:36:50;6.67;;;5.67;;
8887;SDS011;4480;52.370;9.748;2023-04-24T08:39:16;6.23;;;4.70;;
8887;SDS011;4480;52.370;9.748;2023-04-24T08:41:44;6.00;;;5.13;;
8887;SDS011;4480;52.370;9.748;2023-04-24T08:44:11;5.70;;;4.87;;
8887;SDS011;4480;52.370;9.748;2023-04-24T08:46:41;5.70;;;5.20;;
8887;SDS011;4480;52.370;9.748;2023-04-24T08:49:10;6.17;;;5.47;;
8887;SDS011;4480;52.370;9.748;2023-04-24T08:51:37;6.00;;;5.37;;
8887;SDS011;4480;52.370;9.748;2023-04-24T08:54:05;6.03;;;5.40;;
8887;SDS011;4480;52.370;9.748;2023-04-24T08:56:33;6.53;;;5.10;;
8887;SDS011;4480;52.370;9.748;2023-04-24T08:59:02;5.87;;;4.40;;
8887;SDS011;4480;52.370;9.748;2023-04-24T09:01:30;5.40;;;4.47;;
8887;SDS011;4480;52.370;9.748;2023-04-24T09:04:00;4.57;;;4.07;;
8887;SDS011;4480;52.370;9.748;2023-04-24T09:06:28;4.50;;;3.53;;
8887;SDS011;4480;52.370;9.748;2023-04-24T09:08:57;3.90;;;3.60;;
8887;SDS011;4480;52.370;9.748;2023-04-24T09:11:27;4.67;;;3.20;;
8887;SDS011;4480;52.370;9.748;2023-04-24T09:13:54;4.17;;;2.80;;
8887;SDS011;4480;52.370;9.748;2023-04-24T09:16:21;3.63;;;3.03;;
8887;SDS011;4480;52.370;9.748;2023-04-24T09:18:49;2.60;;;2.30;;
8887;SDS011;4480;52.370;9.748;2023-04-24T09:21:19;2.60;;;2.40;;
8887;SDS011;4480;52.370;9.748;2023-04-24T09:23:48;3.73;;;3.30;;
8887;SDS011;4480;52.370;9.748;2023-04-24T09:26:24;3.97;;;2.50;;
8887;SDS011;4480;52.370;9.748;2023-04-24T09:28:53;3.30;;;2.60;;
8887;SDS011;4480;52.370;9.748;2023-04-24T09:31:19;2.57;;;2.37;;
8887;SDS011;4480;52.370;9.748;2023-04-24T09:33:53;5.93;;;3.10;;
8887;SDS011;4480;52.370;9.748;2023-04-24T09:36:27;3.40;;;3.03;;
8887;SDS011;4480;52.370;9.748;2023-04-24T09:38:57;3.30;;;2.90;;
8887;SDS011;4480;52.370;9.748;2023-04-24T09:41:24;3.90;;;3.17;;
8887;SDS011;4480;52.370;9.748;2023-04-24T09:43:53;3.50;;;3.20;;
8887;SDS011;4480;52.370;9.748;2023-04-24T09:46:20;5.37;;;3.50;;
8887;SDS011;4480;52.370;9.748;2023-04-24T09:48:47;3.30;;;3.00;;
8887;SDS011;4480;52.370;9.748;2023-04-24T09:51:14;3.03;;;2.83;;
8887;SDS011;4480;52.370;9.748;2023-04-24T09:53:46;3.67;;;3.37;;
8887;SDS011;4480;52.370;9.748;2023-04-24T09:56:13;6.40;;;3.20;;
8887;SDS011;4480;52.370;9.748;2023-04-24T09:58:40;3.80;;;3.10;;
8887;SDS011;4480;52.370;9.748;2023-04-24T10:01:07;4.83;;;3.00;;
8887;SDS011;4480;52.370;9.748;2023-04-24T10:03:33;3.13;;;2.83;;
8887;SDS011;4480;52.370;9.748;2023-04-24T10:06:01;3.80;;;3.50;;
8887;SDS011;4480;52.370;9.748;2023-04-24T10:08:33;4.00;;;3.60;;
8887;SDS011;4480;52.370;9.748;2023-04-24T10:11:02;5.30;;;4.20;;
8887;SDS011;4480;52.370;9.748;2023-04-24T10:13:29;3.90;;;2.80;;
8887;SDS011;4480;52.370;9.748;2023-04-24T10:15:57;3.53;;;3.20;;
8887;SDS011;4480;52.370;9.748;2023-04-24T10:18:26;3.20;;;2.90;;
8887;SDS011;4480;52.370;9.748;2023-04-24T10:20:53;3.80;;;2.80;;
8887;SDS011;4480;52.370;9.748;2023-04-24T10:23:21;3.23;;;2.90;;
8887;SDS011;4480;52.370;9.748;2023-04-24T10:25:48;3.50;;;2.37;;
8887;SDS011;4480;52.370;9.748;2023-04-24T10:28:18;2.70;;;2.50;;
8887;SDS011;4480;52.370;9.748;2023-04-24T10:30:45;3.93;;;3.00;;
8887;SDS011;4480;52.370;9.748;2023-04-24T10:33:13;3.70;;;2.60;;
8887;SDS011;4480;52.370;9.748;2023-04-24T10:35:41;2.80;;;2.60;;
8887;SDS011;4480;52.370;9.748;2023-04-24T10:38:11;5.03;;;3.17;;
8887;SDS011;4480;52.370;9.748;2023-04-24T10:40:39;3.00;;;2.57;;
8887;SDS011;4480;52.370;9.748;2023-04-24T10:43:06;3.97;;;3.23;;
8887;SDS011;4480;52.370;9.748;2023-04-24T10:45:37;3.50;;;3.17;;
8887;SDS011;4480;52.370;9.748;2023-04-24T10:48:05;4.00;;;3.23;;
8887;SDS011;4480;52.370;9.748;2023-04-24T10:50:42;2.90;;;2.70;;
8887;SDS011;4480;52.370;9.748;2023-04-24T10:53:14;3.50;;;2.83;;
8887;SDS011;4480;52.370;9.748;2023-04-24T10:55:43;2.60;;;2.20;;
8887;SDS011;4480;52.370;9.748;2023-04-24T10:58:11;8.33;;;2.73;;
8887;SDS011;4480;52.370;9.748;2023-04-24T11:00:39;2.90;;;2.60;;
8887;SDS011;4480;52.370;9.748;2023-04-24T11:03:21;3.90;;;2.63;;
8887;SDS011;4480;52.370;9.748;2023-04-24T11:05:51;2.50;;;2.30;;
8887;SDS011;4480;52.370;9.748;2023-04-24T11:08:26;3.13;;;2.40;;
8887;SDS011;4480;52.370;9.748;2023-04-24T11:10:59;2.70;;;2.50;;
8887;SDS011;4480;52.370;9.748;2023-04-24T11:13:28;3.20;;;2.43;;
8887;SDS011;4480;52.370;9.748;2023-04-24T11:16:25;2.83;;;2.37;;
8887;SDS011;4480;52.370;9.748;2023-04-24T11:18:59;3.63;;;2.03;;
8887;SDS011;4480;52.370;9.748;2023-04-24T11:21:31;2.63;;;2.43;;
8887;SDS011;4480;52.370;9.748;2023-04-24T11:23:58;2.70;;;2.07;;
8887;SDS011;4480;52.370;9.748;2023-04-24T11:26:40;2.10;;;1.90;;
8887;SDS011;4480;52.370;9.748;2023-04-24T11:29:07;2.43;;;1.87;;
8887;SDS011;4480;52.370;9.748;2023-04-24T11:31:36;3.30;;;1.70;;
8887;SDS011;4480;52.370;9.748;2023-04-24T11:34:07;1.80;;;1.70;;
8887;SDS011;4480;52.370;9.748;2023-04-24T11:36:35;3.60;;;1.37;;
8887;SDS011;4480;52.370;9.748;2023-04-24T11:39:02;1.70;;;1.50;;
8887;SDS011;4480;52.370;9.748;2023-04-24T11:41:29;2.10;;;1.60;;
8887;SDS011;4480;52.370;9.748;2023-04-24T11:43:56;2.33;;;1.57;;
8887;SDS011;4480;52.370;9.748;2023-04-24T11:46:26;2.40;;;2.20;;
8887;SDS011;4480;52.370;9.748;2023-04-24T11:48:55;1.63;;;1.40;;
8887;SDS011;4480;52.370;9.748;2023-04-24T11:51:22;1.67;;;1.57;;
8887;SDS011;4480;52.370;9.748;2023-04-24T11:53:50;1.77;;;1.67;;
8887;SDS011;4480;52.370;9.748;2023-04-24T11:56:17;1.67;;;1.57;;
8887;SDS011;4480;52.370;9.748;2023-04-24T11:58:45;1.77;;;1.40;;
8887;SDS011;4480;52.370;9.748;2023-04-24T12:01:11;1.77;;;1.67;;
8887;SDS011;4480;52.370;9.748;2023-04-24T12:03:38;2.23;;;1.47;;
8887;SDS011;4480;52.370;9.748;2023-04-24T12:06:09;1.70;;;1.53;;
8887;SDS011;4480;52.370;9.748;2023-04-24T12:08:37;1.40;;;1.30;;
8887;SDS011;4480;52.370;9.748;2023-04-24T12:11:05;1.53;;;1.40;;
8887;SDS011;4480;52.370;9.748;2023-04-24T12:13:33;2.30;;;1.10;;
8887;SDS011;4480;52.370;9.748;2023-04-24T12:16:01;1.10;;;1.00;;
8887;SDS011;4480;52.370;9.748;2023-04-24T12:18:29;1.27;;;1.17;;
8887;SDS011;4480;52.370;9.748;2023-04-24T12:23:44;1.50;;;1.13;;
8887;SDS011;4480;52.370;9.748;2023-04-24T12:26:11;1.97;;;1.13;;
8887;SDS011;4480;52.370;9.748;2023-04-24T12:28:38;1.27;;;1.17;;
8887;SDS011;4480;52.370;9.748;2023-04-24T12:31:06;2.03;;;1.20;;
8887;SDS011;4480;52.370;9.748;2023-04-24T12:33:34;1.50;;;1.10;;
8887;SDS011;4480;52.370;9.748;2023-04-24T12:36:01;1.30;;;1.20;;
8887;SDS011;4480;52.370;9.748;2023-04-24T12:38:30;1.40;;;1.20;;
8887;SDS011;4480;52.370;9.748;2023-04-24T12:41:06;1.43;;;1.17;;
8887;SDS011;4480;52.370;9.748;2023-04-24T12:43:33;2.20;;;1.70;;
8887;SDS011;4480;52.370;9.748;2023-04-24T12:46:01;1.20;;;1.10;;
8887;SDS011;4480;52.370;9.748;2023-04-24T12:48:28;1.23;;;1.13;;
8887;SDS011;4480;52.370;9.748;2023-04-24T12:50:56;3.03;;;1.30;;
8887;SDS011;4480;52.370;9.748;2023-04-24T12:53:26;1.53;;;1.20;;
8887;SDS011;4480;52.370;9.748;2023-04-24T12:55:55;1.60;;;1.50;;
8887;SDS011;4480;52.370;9.748;2023-04-24T12:58:23;1.73;;;1.50;;
8887;SDS011;4480;52.370;9.748;2023-04-24T13:00:50;1.97;;;1.60;;
8887;SDS011;4480;52.370;9.748;2023-04-24T13:03:19;1.60;;;1.50;;
8887;SDS011;4480;52.370;9.748;2023-04-24T13:05:47;2.13;;;1.90;;
8887;SDS011;4480;52.370;9.748;2023-04-24T13:08:14;1.40;;;1.30;;
8887;SDS011;4480;52.370;9.748;2023-04-24T13:10:41;2.40;;;1.17;;
8887;SDS011;4480;52.370;9.748;2023-04-24T13:13:09;2.60;;;1.33;;
8887;SDS011;4480;52.370;9.748;2023-04-24T13:15:36;1.73;;;1.63;;
8887;SDS011;4480;52.370;9.748;2023-04-24T13:18:03;1.77;;;1.67;;
8887;SDS011;4480;52.370;9.748;2023-04-24T13:20:30;1.43;;;1.30;;
8887;SDS011;4480;52.370;9.748;2023-04-24T13:22:56;2.97;;;1.57;;
8887;SDS011;4480;52.370;9.748;2023-04-24T13:25:23;1.63;;;1.27;;
8887;SDS011;4480;52.370;9.748;2023-04-24T13:27:51;2.20;;;1.60;;
8887;SDS011;4480;52.370;9.748;2023-04-24T13:30:19;2.17;;;1.50;;
8887;SDS011;4480;52.370;9.748;2023-04-24T13:32:46;2.27;;;1.47;;
8887;SDS011;4480;52.370;9.748;2023-04-24T13:35:13;2.40;;;1.47;;
8887;SDS011;4480;52.370;9.748;2023-04-24T13:37:40;1.57;;;1.30;;
8887;SDS011;4480;52.370;9.748;2023-04-24T13:40:07;1.47;;;1.37;;
8887;SDS011;4480;52.370;9.748;2023-04-24T13:42:34;1.30;;;1.20;;
8887;SDS011;4480;52.370;9.748;2023-04-24T13:45:01;1.37;;;1.27;;
8887;SDS011;4480;52.370;9.748;2023-04-24T13:47:30;1.60;;;1.30;;
8887;SDS011;4480;52.370;9.748;2023-04-24T13:49:57;2.10;;;1.00;;
8887;SDS011;4480;52.370;9.748;2023-04-24T13:52:24;1.07;;;0.97;;
8887;SDS011;4480;52.370;9.748;2023-04-24T13:54:51;1.00;;;0.90;;
8887;SDS011;4480;52.370;9.748;2023-04-24T13:57:18;1.30;;;0.90;;
8887;SDS011;4480;52.370;9.748;2023-04-24T13:59:44;1.23;;;0.80;;
8887;SDS011;4480;52.370;9.748;2023-04-24T14:02:11;0.97;;;0.83;;
8887;SDS011;4480;52.370;9.748;2023-04-24T14:04:39;1.30;;;1.10;;
8887;SDS011;4480;52.370;9.748;2023-04-24T14:07:06;0.70;;;0.60;;
8887;SDS011;4480;52.370;9.748;2023-04-24T14:09:33;1.57;;;0.83;;
8887;SDS011;4480;52.370;9.748;2023-04-24T14:12:00;2.50;;;1.10;;
8887;SDS011;4480;52.370;9.748;2023-04-24T14:14:28;1.42;;;1.30;;
8887;SDS011;4480;52.370;9.748;2023-04-24T14:16:55;1.30;;;1.10;;
8887;SDS011;4480;52.370;9.748;2023-04-24T14:19:23;1.58;;;1.20;;
8887;SDS011;4480;52.370;9.748;2023-04-24T14:21:51;1.60;;;1.35;;
8887;SDS011;4480;52.370;9.748;2023-04-24T14:24:18;1.40;;;1.30;;
8887;SDS011;4480;52.370;9.748;2023-04-24T14:26:45;1.95;;;1.50;;
8887;SDS011;4480;52.370;9.748;2023-04-24T14:29:12;2.05;;;1.83;;
8887;SDS011;4480;52.370;9.748;2023-04-24T14:31:39;2.22;;;2.03;;
8887;SDS011;4480;52.370;9.748;2023-04-24T14:34:06;1.65;;;1.48;;
8887;SDS011;4480;52.370;9.748;2023-04-24T14:36:32;3.13;;;2.00;;
8887;SDS011;4480;52.370;9.748;2023-04-24T14:39:01;2.78;;;2.28;;
8887;SDS011;4480;52.370;9.748;2023-04-24T14:41:31;3.10;;;2.15;;
8887;SDS011;4480;52.370;9.748;2023-04-24T14:44:00;2.42;;;1.95;;
8887;SDS011;4480;52.370;9.748;2023-04-24T14:46:27;3.15;;;2.03;;
8887;SDS011;4480;52.370;9.748;2023-04-24T14:48:55;3.55;;;2.45;;
8887;SDS011;4480;52.370;9.748;2023-04-24T14:51:22;2.65;;;2.33;;
8887;SDS011;4480;52.370;9.748;2023-04-24T14:53:48;2.65;;;2.33;;
8887;SDS011;4480;52.370;9.748;2023-04-24T14:56:16;4.10;;;2.85;;
8887;SDS011;4480;52.370;9.748;2023-04-24T14:58:43;3.30;;;2.85;;
8887;SDS011;4480;52.370;9.748;2023-04-24T15:01:10;5.72;;;3.28;;
8887;SDS011;4480;52.370;9.748;2023-04-24T15:03:37;3.95;;;3.05;;
8887;SDS011;4480;52.370;9.748;2023-04-24T15:06:04;3.70;;;2.90;;
8887;SDS011;4480;52.370;9.748;2023-04-24T15:08:31;5.47;;;3.08;;
8887;SDS011;4480;52.370;9.748;2023-04-24T15:10:58;3.63;;;2.72;;
8887;SDS011;4480;52.370;9.748;2023-04-24T15:13:26;3.90;;;3.50;;
8887;SDS011;4480;52.370;9.748;2023-04-24T15:15:53;3.95;;;3.40;;
8887;SDS011;4480;52.370;9.748;2023-04-24T15:18:20;4.40;;;3.38;;
8887;SDS011;4480;52.370;9.748;2023-04-24T15:20:47;6.03;;;4.75;;
8887;SDS011;4480;52.370;9.748;2023-04-24T15:23:14;7.72;;;3.95;;